sensor_id;sensor_type;location;lat;lon;timestamp;pressure;altitude;pressure_sealevel;temperature;humidity
68994;BME280;56054;50.968;5.816;2023-05-08T00:07:37;101158.31;;;16.17;100.00
68994;BME280;56054;50.968;5.816;2023-05-08T00:10:38;101164.81;;;16.25;100.00
68994;BME280;56054;50.968;5.816;2023-05-08T00:13:38;101160.53;;;16.27;100.00
68994;BME280;56054;50.968;5.816;2023-05-08T00:16:39;101157.69;;;16.22;100.00
68994;BME280;56054;50.968;5.816;2023-05-08T00:19:40;101159.06;;;16.14;100.00
68994;BME280;56054;50.968;5.816;2023-05-08T00:22:41;101160.94;;;16.17;100.00
68994;BME280;56054;50.968;5.816;2023-05-08T00:25:41;101155.47;;;16.12;100.00
68994;BME280;56054;50.968;5.816;2023-05-08T00:28:42;101157.00;;;16.07;100.00
68994;BME280;56054;50.968;5.816;2023-05-08T00:31:42;101156.53;;;15.98;100.00
68994;BME280;56054;50.968;5.816;2023-05-08T00:34:43;101151.44;;;16.01;100.00
68994;BME280;56054;50.968;5.816;2023-05-08T00:37:50;101157.75;;;16.04;100.00
68994;BME280;56054;50.968;5.816;2023-05-08T00:40:51;101163.44;;;15.96;100.00
68994;BME280;56054;50.968;5.816;2023-05-08T00:43:53;101161.69;;;15.96;100.00
68994;BME280;56054;50.968;5.816;2023-05-08T00:46:54;101163.50;;;15.79;100.00
68994;BME280;56054;50.968;5.816;2023-05-08T00:49:55;101169.94;;;15.86;100.00
68994;BME280;56054;50.968;5.816;2023-05-08T00:52:56;101175.06;;;15.83;100.00
68994;BME280;56054;50.968;5.816;2023-05-08T00:55:58;101170.78;;;15.85;100.00
68994;BME280;56054;50.968;5.816;2023-05-08T00:58:59;101172.06;;;15.75;100.00
68994;BME280;56054;50.968;5.816;2023-05-08T01:02:00;101163.84;;;15.69;100.00
68994;BME280;56054;50.968;5.816;2023-05-08T01:05:02;101166.63;;;15.72;100.00
68994;BME280;56054;50.968;5.816;2023-05-08T01:08:02;101171.38;;;15.79;100.00
68994;BME280;56054;50.968;5.816;2023-05-08T01:14:20;101171.06;;;15.73;100.00
68994;BME280;56054;50.968;5.816;2023-05-08T01:21:09;101172.53;;;15.68;100.00
68994;BME280;56054;50.968;5.816;2023-05-08T01:34:21;101181.47;;;15.72;100.00
68994;BME280;56054;50.968;5.816;2023-05-08T01:37:29;101177.78;;;15.68;100.00
68994;BME280;56054;50.968;5.816;2023-05-08T01:40:54;101173.53;;;15.70;100.00
68994;BME280;56054;50.968;5.816;2023-05-08T01:44:12;101170.19;;;15.73;100.00
68994;BME280;56054;50.968;5.816;2023-05-08T01:47:15;101174.44;;;15.71;100.00
68994;BME280;56054;50.968;5.816;2023-05-08T01:50:29;101175.16;;;15.68;100.00
68994;BME280;56054;50.968;5.816;2023-05-08T01:53:50;101172.53;;;15.68;100.00
68994;BME280;56054;50.968;5.816;2023-05-08T01:56:55;101168.38;;;15.72;100.00
68994;BME280;56054;50.968;5.816;2023-05-08T01:59:59;101170.59;;;15.64;100.00
68994;BME280;56054;50.968;5.816;2023-05-08T02:03:00;101163.56;;;15.63;100.00
68994;BME280;56054;50.968;5.816;2023-05-08T02:06:02;101172.31;;;15.63;100.00
68994;BME280;56054;50.968;5.816;2023-05-08T02:09:06;101172.22;;;15.62;100.00
68994;BME280;56054;50.968;5.816;2023-05-08T02:12:09;101174.94;;;15.63;100.00
68994;BME280;56054;50.968;5.816;2023-05-08T02:15:11;101176.66;;;15.63;100.00
68994;BME280;56054;50.968;5.816;2023-05-08T02:18:14;101176.06;;;15.69;100.00
68994;BME280;56054;50.968;5.816;2023-05-08T02:21:18;101173.56;;;15.54;100.00
68994;BME280;56054;50.968;5.816;2023-05-08T02:24:19;101176.56;;;15.61;100.00
68994;BME280;56054;50.968;5.816;2023-05-08T02:27:21;101176.47;;;15.60;100.00
68994;BME280;56054;50.968;5.816;2023-05-08T02:30:25;101178.06;;;15.56;100.00
68994;BME280;56054;50.968;5.816;2023-05-08T02:33:28;101173.84;;;15.42;100.00
68994;BME280;56054;50.968;5.816;2023-05-08T02:36:31;101170.72;;;15.49;100.00
68994;BME280;56054;50.968;5.816;2023-05-08T02:39:35;101184.06;;;15.54;100.00
68994;BME280;56054;50.968;5.816;2023-05-08T02:42:37;101187.56;;;15.54;100.00
68994;BME280;56054;50.968;5.816;2023-05-08T02:46:21;101186.66;;;15.54;100.00
68994;BME280;56054;50.968;5.816;2023-05-08T02:52:38;101195.34;;;15.53;100.00
68994;BME280;56054;50.968;5.816;2023-05-08T02:55:48;101191.06;;;15.55;100.00
68994;BME280;56054;50.968;5.816;2023-05-08T02:59:11;101197.94;;;15.53;100.00
68994;BME280;56054;50.968;5.816;2023-05-08T03:02:15;101197.50;;;15.44;100.00
68994;BME280;56054;50.968;5.816;2023-05-08T03:05:32;101193.34;;;15.31;100.00
68994;BME280;56054;50.968;5.816;2023-05-08T03:08:34;101196.06;;;15.32;100.00
68994;BME280;56054;50.968;5.816;2023-05-08T03:11:39;101190.16;;;15.36;100.00
68994;BME280;56054;50.968;5.816;2023-05-08T03:14:44;101192.41;;;15.47;100.00
68994;BME280;56054;50.968;5.816;2023-05-08T03:17:47;101193.31;;;15.47;100.00
68994;BME280;56054;50.968;5.816;2023-05-08T03:20:53;101183.06;;;15.34;100.00
68994;BME280;56054;50.968;5.816;2023-05-08T03:23:57;101177.28;;;15.41;100.00
68994;BME280;56054;50.968;5.816;2023-05-08T03:26:59;101185.72;;;15.35;100.00
68994;BME280;56054;50.968;5.816;2023-05-08T03:30:01;101183.09;;;15.35;100.00
68994;BME280;56054;50.968;5.816;2023-05-08T03:33:04;101186.84;;;15.40;100.00
68994;BME280;56054;50.968;5.816;2023-05-08T03:36:05;101190.16;;;15.36;100.00
68994;BME280;56054;50.968;5.816;2023-05-08T03:39:06;101187.53;;;15.36;100.00
68994;BME280;56054;50.968;5.816;2023-05-08T03:42:08;101178.88;;;15.21;100.00
68994;BME280;56054;50.968;5.816;2023-05-08T03:45:09;101183.72;;;15.30;100.00
68994;BME280;56054;50.968;5.816;2023-05-08T03:48:10;101186.91;;;15.24;100.00
68994;BME280;56054;50.968;5.816;2023-05-08T03:51:12;101184.59;;;15.30;100.00
68994;BME280;56054;50.968;5.816;2023-05-08T03:54:14;101183.97;;;15.18;100.00
68994;BME280;56054;50.968;5.816;2023-05-08T03:57:17;101181.75;;;15.26;100.00
68994;BME280;56054;50.968;5.816;2023-05-08T04:00:38;101185.03;;;15.22;100.00
68994;BME280;56054;50.968;5.816;2023-05-08T04:03:55;101182.94;;;15.14;100.00
68994;BME280;56054;50.968;5.816;2023-05-08T04:07:05;101174.66;;;15.07;100.00
68994;BME280;56054;50.968;5.816;2023-05-08T04:10:23;101177.06;;;15.02;100.00
68994;BME280;56054;50.968;5.816;2023-05-08T04:13:30;101176.78;;;15.14;100.00
68994;BME280;56054;50.968;5.816;2023-05-08T04:16:36;101178.66;;;15.16;100.00
68994;BME280;56054;50.968;5.816;2023-05-08T04:19:44;101171.22;;;15.08;100.00
68994;BME280;56054;50.968;5.816;2023-05-08T04:22:49;101179.72;;;15.04;100.00
68994;BME280;56054;50.968;5.816;2023-05-08T04:25:54;101176.63;;;15.11;100.00
68994;BME280;56054;50.968;5.816;2023-05-08T04:28:56;101184.22;;;15.06;100.00
68994;BME280;56054;50.968;5.816;2023-05-08T04:31:56;101184.31;;;15.08;100.00
68994;BME280;56054;50.968;5.816;2023-05-08T04:35:05;101187.00;;;15.09;100.00
68994;BME280;56054;50.968;5.816;2023-05-08T04:38:06;101192.97;;;15.07;100.00
68994;BME280;56054;50.968;5.816;2023-05-08T04:41:07;101187.09;;;15.11;100.00
68994;BME280;56054;50.968;5.816;2023-05-08T04:44:08;101194.63;;;15.05;100.00
68994;BME280;56054;50.968;5.816;2023-05-08T04:47:08;101199.19;;;15.09;100.00
68994;BME280;56054;50.968;5.816;2023-05-08T04:50:09;101193.72;;;15.04;100.00
68994;BME280;56054;50.968;5.816;2023-05-08T04:56:56;101202.63;;;15.08;100.00
68994;BME280;56054;50.968;5.816;2023-05-08T05:00:09;101203.63;;;15.10;100.00
68994;BME280;56054;50.968;5.816;2023-05-08T05:03:13;101209.00;;;15.13;100.00
68994;BME280;56054;50.968;5.816;2023-05-08T05:06:14;101208.19;;;15.14;100.00
68994;BME280;56054;50.968;5.816;2023-05-08T05:09:14;101201.31;;;15.16;100.00
68994;BME280;56054;50.968;5.816;2023-05-08T05:12:14;101215.63;;;15.23;100.00
68994;BME280;56054;50.968;5.816;2023-05-08T05:15:15;101218.09;;;15.19;100.00
68994;BME280;56054;50.968;5.816;2023-05-08T05:18:15;101221.84;;;15.25;100.00
68994;BME280;56054;50.968;5.816;2023-05-08T05:21:16;101220.66;;;15.36;100.00
68994;BME280;56054;50.968;5.816;2023-05-08T05:24:17;101224.03;;;15.33;100.00
68994;BME280;56054;50.968;5.816;2023-05-08T05:27:18;101232.81;;;15.34;100.00
68994;BME280;56054;50.968;5.816;2023-05-08T05:30:19;101218.28;;;15.40;100.00
68994;BME280;56054;50.968;5.816;2023-05-08T05:33:19;101228.09;;;15.45;100.00
68994;BME280;56054;50.968;5.816;2023-05-08T05:36:20;101229.88;;;15.46;100.00
68994;BME280;56054;50.968;5.816;2023-05-08T05:39:22;101229.66;;;15.41;100.00
68994;BME280;56054;50.968;5.816;2023-05-08T05:42:22;101228.84;;;15.42;100.00
68994;BME280;56054;50.968;5.816;2023-05-08T05:45:23;101226.38;;;15.45;100.00
68994;BME280;56054;50.968;5.816;2023-05-08T05:48:23;101237.94;;;15.49;100.00
68994;BME280;56054;50.968;5.816;2023-05-08T05:51:24;101236.72;;;15.60;100.00
68994;BME280;56054;50.968;5.816;2023-05-08T05:54:25;101233.44;;;15.64;100.00
68994;BME280;56054;50.968;5.816;2023-05-08T05:57:25;101239.44;;;15.61;100.00
68994;BME280;56054;50.968;5.816;2023-05-08T06:00:27;101242.28;;;15.66;100.00
68994;BME280;56054;50.968;5.816;2023-05-08T06:03:30;101256.88;;;15.61;100.00
68994;BME280;56054;50.968;5.816;2023-05-08T06:06:30;101259.75;;;15.66;100.00
68994;BME280;56054;50.968;5.816;2023-05-08T06:09:32;101259.97;;;15.70;100.00
68994;BME280;56054;50.968;5.816;2023-05-08T06:12:33;101261.63;;;15.68;100.00
68994;BME280;56054;50.968;5.816;2023-05-08T06:15:40;101253.34;;;15.77;100.00
68994;BME280;56054;50.968;5.816;2023-05-08T06:18:41;101266.59;;;15.80;100.00
68994;BME280;56054;50.968;5.816;2023-05-08T06:21:41;101261.94;;;15.74;100.00
68994;BME280;56054;50.968;5.816;2023-05-08T06:24:42;101264.16;;;15.83;100.00
68994;BME280;56054;50.968;5.816;2023-05-08T06:27:42;101267.31;;;15.77;100.00
68994;BME280;56054;50.968;5.816;2023-05-08T06:30:42;101270.41;;;15.87;100.00
68994;BME280;56054;50.968;5.816;2023-05-08T06:33:43;101267.56;;;15.82;100.00
68994;BME280;56054;50.968;5.816;2023-05-08T06:36:43;101270.28;;;15.83;100.00
68994;BME280;56054;50.968;5.816;2023-05-08T06:39:44;101267.81;;;15.87;100.00
68994;BME280;56054;50.968;5.816;2023-05-08T06:42:44;101272.06;;;15.84;100.00
68994;BME280;56054;50.968;5.816;2023-05-08T06:45:45;101273.88;;;15.86;100.00
68994;BME280;56054;50.968;5.816;2023-05-08T06:58:27;101282.59;;;16.02;100.00
68994;BME280;56054;50.968;5.816;2023-05-08T07:01:28;101283.63;;;16.06;100.00
68994;BME280;56054;50.968;5.816;2023-05-08T07:04:28;101280.84;;;16.03;100.00
68994;BME280;56054;50.968;5.816;2023-05-08T07:07:29;101286.25;;;16.06;100.00
68994;BME280;56054;50.968;5.816;2023-05-08T07:10:29;101292.59;;;16.11;100.00
68994;BME280;56054;50.968;5.816;2023-05-08T07:13:30;101296.22;;;16.13;100.00
68994;BME280;56054;50.968;5.816;2023-05-08T07:16:31;101291.81;;;16.12;100.00
68994;BME280;56054;50.968;5.816;2023-05-08T07:19:35;101291.72;;;16.11;100.00
68994;BME280;56054;50.968;5.816;2023-05-08T07:22:38;101301.78;;;16.19;100.00
68994;BME280;56054;50.968;5.816;2023-05-08T07:25:38;101289.47;;;16.18;100.00
68994;BME280;56054;50.968;5.816;2023-05-08T07:28:39;101296.97;;;16.11;100.00
68994;BME280;56054;50.968;5.816;2023-05-08T07:31:39;101295.09;;;16.08;100.00
68994;BME280;56054;50.968;5.816;2023-05-08T07:34:40;101290.69;;;16.07;100.00
68994;BME280;56054;50.968;5.816;2023-05-08T07:37:40;101296.06;;;16.10;100.00
68994;BME280;56054;50.968;5.816;2023-05-08T07:40:43;101303.47;;;16.01;100.00
68994;BME280;56054;50.968;5.816;2023-05-08T07:43:43;101305.84;;;15.96;100.00
68994;BME280;56054;50.968;5.816;2023-05-08T07:46:46;101304.97;;;15.96;100.00
68994;BME280;56054;50.968;5.816;2023-05-08T07:49:46;101306.69;;;15.95;100.00
68994;BME280;56054;50.968;5.816;2023-05-08T07:52:47;101309.13;;;15.92;100.00
68994;BME280;56054;50.968;5.816;2023-05-08T07:55:47;101301.22;;;15.91;100.00
68994;BME280;56054;50.968;5.816;2023-05-08T07:58:48;101308.50;;;15.80;100.00
68994;BME280;56054;50.968;5.816;2023-05-08T08:01:48;101304.63;;;15.90;100.00
68994;BME280;56054;50.968;5.816;2023-05-08T08:04:48;101300.38;;;15.92;100.00
68994;BME280;56054;50.968;5.816;2023-05-08T08:07:49;101300.00;;;16.02;100.00
68994;BME280;56054;50.968;5.816;2023-05-08T08:10:49;101304.06;;;16.13;100.00
68994;BME280;56054;50.968;5.816;2023-05-08T08:13:50;101302.91;;;16.24;100.00
68994;BME280;56054;50.968;5.816;2023-05-08T08:16:50;101303.88;;;16.26;100.00
68994;BME280;56054;50.968;5.816;2023-05-08T08:19:50;101299.56;;;16.29;100.00
68994;BME280;56054;50.968;5.816;2023-05-08T08:22:51;101301.78;;;16.19;100.00
68994;BME280;56054;50.968;5.816;2023-05-08T08:25:52;101297.94;;;16.31;100.00
68994;BME280;56054;50.968;5.816;2023-05-08T08:28:53;101305.00;;;16.32;100.00
68994;BME280;56054;50.968;5.816;2023-05-08T08:31:55;101300.94;;;16.38;100.00
68994;BME280;56054;50.968;5.816;2023-05-08T08:34:56;101302.28;;;16.48;100.00
68994;BME280;56054;50.968;5.816;2023-05-08T08:37:56;101301.47;;;16.49;100.00
68994;BME280;56054;50.968;5.816;2023-05-08T08:40:57;101303.38;;;16.53;100.00
68994;BME280;56054;50.968;5.816;2023-05-08T08:43:57;101308.13;;;16.78;100.00
68994;BME280;56054;50.968;5.816;2023-05-08T08:46:58;101300.72;;;17.07;100.00
68994;BME280;56054;50.968;5.816;2023-05-08T08:50:01;101299.66;;;17.03;100.00
68994;BME280;56054;50.968;5.816;2023-05-08T08:56:20;101299.66;;;17.03;100.00
68994;BME280;56054;50.968;5.816;2023-05-08T08:59:23;101300.91;;;17.11;100.00
68994;BME280;56054;50.968;5.816;2023-05-08T09:02:26;101300.75;;;17.08;100.00
68994;BME280;56054;50.968;5.816;2023-05-08T09:05:28;101301.41;;;17.22;100.00
68994;BME280;56054;50.968;5.816;2023-05-08T09:08:29;101294.97;;;17.35;100.00
68994;BME280;56054;50.968;5.816;2023-05-08T09:11:30;101296.72;;;17.55;100.00
68994;BME280;56054;50.968;5.816;2023-05-08T09:14:30;101290.94;;;17.43;100.00
68994;BME280;56054;50.968;5.816;2023-05-08T09:17:31;101292.97;;;17.29;100.00
68994;BME280;56054;50.968;5.816;2023-05-08T09:20:31;101293.53;;;17.42;100.00
68994;BME280;56054;50.968;5.816;2023-05-08T09:23:34;101299.56;;;17.60;100.00
68994;BME280;56054;50.968;5.816;2023-05-08T09:26:39;101295.22;;;17.61;100.00
68994;BME280;56054;50.968;5.816;2023-05-08T09:29:40;101291.44;;;17.54;100.00
68994;BME280;56054;50.968;5.816;2023-05-08T09:33:00;101291.28;;;17.70;100.00
68994;BME280;56054;50.968;5.816;2023-05-08T09:36:01;101306.44;;;17.57;100.00
68994;BME280;56054;50.968;5.816;2023-05-08T09:39:02;101303.81;;;17.77;100.00
68994;BME280;56054;50.968;5.816;2023-05-08T09:42:03;101312.03;;;18.05;100.00
68994;BME280;56054;50.968;5.816;2023-05-08T09:45:04;101306.31;;;17.94;100.00
68994;BME280;56054;50.968;5.816;2023-05-08T09:48:05;101315.53;;;17.84;100.00
68994;BME280;56054;50.968;5.816;2023-05-08T09:51:08;101310.88;;;17.79;100.00
68994;BME280;56054;50.968;5.816;2023-05-08T09:54:16;101315.34;;;18.01;100.00
68994;BME280;56054;50.968;5.816;2023-05-08T09:57:17;101314.13;;;18.13;100.00
68994;BME280;56054;50.968;5.816;2023-05-08T10:00:17;101308.69;;;17.88;100.00
68994;BME280;56054;50.968;5.816;2023-05-08T10:03:18;101314.28;;;17.95;100.00
68994;BME280;56054;50.968;5.816;2023-05-08T10:06:18;101320.63;;;18.01;100.00
68994;BME280;56054;50.968;5.816;2023-05-08T10:09:19;101317.41;;;18.08;100.00
68994;BME280;56054;50.968;5.816;2023-05-08T10:12:20;101314.75;;;18.29;100.00
68994;BME280;56054;50.968;5.816;2023-05-08T10:15:29;101316.81;;;18.36;100.00
68994;BME280;56054;50.968;5.816;2023-05-08T10:18:33;101310.66;;;18.35;100.00
68994;BME280;56054;50.968;5.816;2023-05-08T10:21:35;101322.13;;;18.58;100.00
68994;BME280;56054;50.968;5.816;2023-05-08T10:24:40;101311.88;;;18.44;100.00
68994;BME280;56054;50.968;5.816;2023-05-08T10:27:47;101316.38;;;18.46;100.00
68994;BME280;56054;50.968;5.816;2023-05-08T10:30:53;101319.66;;;18.63;100.00
68994;BME280;56054;50.968;5.816;2023-05-08T10:33:55;101311.91;;;18.45;100.00
68994;BME280;56054;50.968;5.816;2023-05-08T10:36:56;101314.13;;;18.34;100.00
68994;BME280;56054;50.968;5.816;2023-05-08T10:39:58;101310.81;;;18.17;100.00
68994;BME280;56054;50.968;5.816;2023-05-08T10:42:59;101309.28;;;18.45;100.00
68994;BME280;56054;50.968;5.816;2023-05-08T10:46:08;101305.50;;;18.38;100.00
68994;BME280;56054;50.968;5.816;2023-05-08T10:52:37;101299.13;;;18.32;100.00
68994;BME280;56054;50.968;5.816;2023-05-08T10:55:41;101300.88;;;18.54;100.00
68994;BME280;56054;50.968;5.816;2023-05-08T10:58:44;101294.16;;;18.62;100.00
68994;BME280;56054;50.968;5.816;2023-05-08T11:01:48;101291.00;;;18.71;100.00
68994;BME280;56054;50.968;5.816;2023-05-08T11:04:48;101295.84;;;18.60;100.00
68994;BME280;56054;50.968;5.816;2023-05-08T11:07:58;101291.47;;;18.60;100.00
68994;BME280;56054;50.968;5.816;2023-05-08T11:11:04;101283.28;;;18.53;100.00
68994;BME280;56054;50.968;5.816;2023-05-08T11:14:12;101274.38;;;18.72;100.00
68994;BME280;56054;50.968;5.816;2023-05-08T11:17:22;101282.56;;;18.78;100.00
68994;BME280;56054;50.968;5.816;2023-05-08T11:20:37;101274.97;;;18.87;100.00
68994;BME280;56054;50.968;5.816;2023-05-08T11:23:38;101279.47;;;18.90;100.00
68994;BME280;56054;50.968;5.816;2023-05-08T11:26:38;101282.63;;;19.03;100.00
68994;BME280;56054;50.968;5.816;2023-05-08T11:29:39;101278.53;;;19.36;100.00
68994;BME280;56054;50.968;5.816;2023-05-08T11:36:20;101265.31;;;19.34;100.00
68994;BME280;56054;50.968;5.816;2023-05-08T11:39:20;101255.31;;;19.50;100.00
68994;BME280;56054;50.968;5.816;2023-05-08T11:55:54;101259.50;;;20.48;99.00
68994;BME280;56054;50.968;5.816;2023-05-08T11:59:04;101251.69;;;20.24;99.04
68994;BME280;56054;50.968;5.816;2023-05-08T12:02:05;101251.81;;;20.00;100.00
68994;BME280;56054;50.968;5.816;2023-05-08T12:05:07;101246.59;;;19.76;100.00
68994;BME280;56054;50.968;5.816;2023-05-08T12:08:09;101238.94;;;19.84;100.00
68994;BME280;56054;50.968;5.816;2023-05-08T12:11:09;101238.63;;;20.02;100.00
68994;BME280;56054;50.968;5.816;2023-05-08T12:14:11;101246.00;;;20.39;98.94
68994;BME280;56054;50.968;5.816;2023-05-08T12:17:16;101239.75;;;20.94;97.33
68994;BME280;56054;50.968;5.816;2023-05-08T12:20:17;101235.88;;;21.12;94.48
68994;BME280;56054;50.968;5.816;2023-05-08T12:23:18;101235.75;;;21.07;94.53
68994;BME280;56054;50.968;5.816;2023-05-08T12:26:18;101236.84;;;20.28;95.08
68994;BME280;56054;50.968;5.816;2023-05-08T12:29:18;101234.34;;;20.60;95.02
68994;BME280;56054;50.968;5.816;2023-05-08T12:32:19;101238.13;;;20.41;94.39
68994;BME280;56054;50.968;5.816;2023-05-08T12:35:20;101235.44;;;20.39;97.41
68994;BME280;56054;50.968;5.816;2023-05-08T12:38:25;101233.50;;;20.34;96.79
68994;BME280;56054;50.968;5.816;2023-05-08T12:41:26;101233.84;;;20.44;95.60
68994;BME280;56054;50.968;5.816;2023-05-08T12:44:26;101239.56;;;20.31;95.92
68994;BME280;56054;50.968;5.816;2023-05-08T12:47:26;101225.50;;;20.30;96.38
68994;BME280;56054;50.968;5.816;2023-05-08T12:50:33;101213.16;;;20.29;98.13
68994;BME280;56054;50.968;5.816;2023-05-08T12:53:33;101218.72;;;20.39;98.79
68994;BME280;56054;50.968;5.816;2023-05-08T12:56:34;101214.09;;;20.60;97.96
68994;BME280;56054;50.968;5.816;2023-05-08T12:59:34;101219.03;;;20.49;98.24
68994;BME280;56054;50.968;5.816;2023-05-08T13:02:34;101207.09;;;20.61;97.57
68994;BME280;56054;50.968;5.816;2023-05-08T13:05:36;101205.75;;;20.46;96.78
68994;BME280;56054;50.968;5.816;2023-05-08T13:08:37;101200.34;;;20.43;96.36
68994;BME280;56054;50.968;5.816;2023-05-08T13:11:44;101204.06;;;20.48;96.72
68994;BME280;56054;50.968;5.816;2023-05-08T13:14:44;101196.56;;;20.62;95.67
68994;BME280;56054;50.968;5.816;2023-05-08T13:17:47;101195.38;;;20.52;92.79
68994;BME280;56054;50.968;5.816;2023-05-08T13:20:47;101195.63;;;20.60;92.58
68994;BME280;56054;50.968;5.816;2023-05-08T13:23:54;101200.97;;;20.62;94.64
68994;BME280;56054;50.968;5.816;2023-05-08T13:26:55;101190.75;;;20.74;93.28
68994;BME280;56054;50.968;5.816;2023-05-08T13:29:55;101181.97;;;20.75;91.16
68994;BME280;56054;50.968;5.816;2023-05-08T13:32:56;101173.47;;;20.85;92.46
68994;BME280;56054;50.968;5.816;2023-05-08T13:35:56;101181.59;;;20.61;91.68
68994;BME280;56054;50.968;5.816;2023-05-08T13:38:57;101177.25;;;20.63;90.34
68994;BME280;56054;50.968;5.816;2023-05-08T13:41:57;101171.16;;;20.66;88.96
68994;BME280;56054;50.968;5.816;2023-05-08T13:44:58;101165.88;;;20.66;88.53
68994;BME280;56054;50.968;5.816;2023-05-08T13:47:58;101172.66;;;20.58;89.33
68994;BME280;56054;50.968;5.816;2023-05-08T13:51:00;101156.50;;;20.77;88.53
68994;BME280;56054;50.968;5.816;2023-05-08T13:54:00;101158.31;;;20.78;88.78
68994;BME280;56054;50.968;5.816;2023-05-08T13:57:01;101160.69;;;20.69;88.08
68994;BME280;56054;50.968;5.816;2023-05-08T14:00:06;101157.66;;;20.87;87.07
68994;BME280;56054;50.968;5.816;2023-05-08T14:03:09;101161.28;;;20.90;89.33
68994;BME280;56054;50.968;5.816;2023-05-08T14:06:10;101168.53;;;20.98;85.91
68994;BME280;56054;50.968;5.816;2023-05-08T14:09:10;101153.03;;;21.10;86.85
68994;BME280;56054;50.968;5.816;2023-05-08T14:12:11;101163.56;;;21.42;85.16
68994;BME280;56054;50.968;5.816;2023-05-08T14:15:12;101160.34;;;21.53;84.72
68994;BME280;56054;50.968;5.816;2023-05-08T14:18:12;101156.56;;;21.78;81.65
68994;BME280;56054;50.968;5.816;2023-05-08T14:21:13;101160.03;;;21.76;79.45
68994;BME280;56054;50.968;5.816;2023-05-08T14:24:13;101166.19;;;21.76;80.55
68994;BME280;56054;50.968;5.816;2023-05-08T14:27:16;101158.56;;;21.89;80.06
68994;BME280;56054;50.968;5.816;2023-05-08T14:30:16;101156.09;;;21.96;80.82
68994;BME280;56054;50.968;5.816;2023-05-08T14:33:16;101152.97;;;21.76;81.82
68994;BME280;56054;50.968;5.816;2023-05-08T14:36:18;101154.84;;;21.80;81.82
68994;BME280;56054;50.968;5.816;2023-05-08T14:39:18;101151.31;;;21.82;79.64
68994;BME280;56054;50.968;5.816;2023-05-08T14:42:19;101152.91;;;21.73;78.62
68994;BME280;56054;50.968;5.816;2023-05-08T14:45:19;101160.03;;;21.76;80.41
68994;BME280;56054;50.968;5.816;2023-05-08T14:48:20;101163.75;;;21.49;80.08
68994;BME280;56054;50.968;5.816;2023-05-08T14:51:20;101164.84;;;21.57;83.02
68994;BME280;56054;50.968;5.816;2023-05-08T14:54:21;101154.00;;;21.47;84.76
68994;BME280;56054;50.968;5.816;2023-05-08T14:57:21;101151.50;;;21.53;84.03
68994;BME280;56054;50.968;5.816;2023-05-08T15:00:22;101147.69;;;21.76;82.56
68994;BME280;56054;50.968;5.816;2023-05-08T15:03:22;101146.75;;;21.74;82.53
68994;BME280;56054;50.968;5.816;2023-05-08T15:06:23;101155.19;;;21.96;80.54
68994;BME280;56054;50.968;5.816;2023-05-08T15:09:23;101153.25;;;21.89;80.51
68994;BME280;56054;50.968;5.816;2023-05-08T15:12:24;101144.22;;;22.17;79.90
68994;BME280;56054;50.968;5.816;2023-05-08T15:15:24;101147.00;;;22.21;78.44
68994;BME280;56054;50.968;5.816;2023-05-08T15:18:24;101142.75;;;22.30;77.11
68994;BME280;56054;50.968;5.816;2023-05-08T15:21:25;101136.16;;;22.12;77.16
68994;BME280;56054;50.968;5.816;2023-05-08T15:24:25;101142.06;;;22.00;77.25
68994;BME280;56054;50.968;5.816;2023-05-08T15:27:26;101132.09;;;21.89;77.00
68994;BME280;56054;50.968;5.816;2023-05-08T15:30:26;101134.56;;;21.81;77.57
68994;BME280;56054;50.968;5.816;2023-05-08T15:33:29;101138.41;;;21.57;80.86
68994;BME280;56054;50.968;5.816;2023-05-08T15:36:29;101131.38;;;21.25;90.80
68994;BME280;56054;50.968;5.816;2023-05-08T15:39:30;101124.91;;;21.12;92.39
68994;BME280;56054;50.968;5.816;2023-05-08T15:42:30;101123.28;;;21.19;93.33
68994;BME280;56054;50.968;5.816;2023-05-08T15:45:30;101121.94;;;21.01;93.60
68994;BME280;56054;50.968;5.816;2023-05-08T15:48:31;101122.69;;;20.95;93.68
68994;BME280;56054;50.968;5.816;2023-05-08T15:51:31;101122.63;;;20.92;93.65
68994;BME280;56054;50.968;5.816;2023-05-08T15:54:32;101126.97;;;20.92;94.51
68994;BME280;56054;50.968;5.816;2023-05-08T15:57:32;101125.06;;;20.86;95.98
68994;BME280;56054;50.968;5.816;2023-05-08T16:00:32;101117.00;;;20.80;96.45
68994;BME280;56054;50.968;5.816;2023-05-08T16:03:33;101116.06;;;20.80;96.95
68994;BME280;56054;50.968;5.816;2023-05-08T16:06:33;101114.03;;;20.69;97.08
68994;BME280;56054;50.968;5.816;2023-05-08T16:09:37;101126.44;;;20.72;97.85
68994;BME280;56054;50.968;5.816;2023-05-08T16:12:44;101121.16;;;20.72;97.85
68994;BME280;56054;50.968;5.816;2023-05-08T16:15:45;101126.16;;;20.61;97.39
68994;BME280;56054;50.968;5.816;2023-05-08T16:18:45;101129.06;;;20.72;98.40
68994;BME280;56054;50.968;5.816;2023-05-08T16:21:45;101119.88;;;20.58;98.39
68994;BME280;56054;50.968;5.816;2023-05-08T16:24:46;101122.47;;;20.56;98.46
68994;BME280;56054;50.968;5.816;2023-05-08T16:27:46;101128.34;;;20.47;97.75
68994;BME280;56054;50.968;5.816;2023-05-08T16:30:47;101125.56;;;20.43;97.53
68994;BME280;56054;50.968;5.816;2023-05-08T16:33:47;101124.59;;;20.39;97.68
68994;BME280;56054;50.968;5.816;2023-05-08T16:36:47;101124.59;;;20.39;97.51
68994;BME280;56054;50.968;5.816;2023-05-08T16:39:48;101119.03;;;20.30;96.94
68994;BME280;56054;50.968;5.816;2023-05-08T16:42:48;101117.38;;;20.34;97.24
68994;BME280;56054;50.968;5.816;2023-05-08T16:45:49;101117.25;;;20.29;96.99
68994;BME280;56054;50.968;5.816;2023-05-08T16:48:49;101119.66;;;20.21;96.67